createdAt,value
2018-02-16T00:00:05.342Z,89.34
2018-02-16T00:02:34.558Z,89.52
2018-02-16T00:05:03.022Z,89.59
2018-02-16T00:07:31.413Z,89.85
2018-02-16T00:09:59.786Z,90.05
2018-02-16T00:12:28.201Z,90.35
2018-02-16T00:14:56.651Z,90.42
2018-02-16T00:17:25.021Z,90.53
2018-02-16T00:19:54.191Z,91.03
2018-02-16T00:22:22.592Z,91.41
2018-02-16T00:24:51.744Z,91.78
2018-02-16T00:27:20.140Z,91.88
2018-02-16T00:29:48.538Z,92.06
2018-02-16T00:32:17.683Z,92.26
2018-02-16T00:34:46.053Z,92.34
2018-02-16T00:37:14.449Z,92.41
2018-02-16T00:39:42.825Z,92.53
2018-02-16T00:42:11.239Z,92.64
2018-02-16T00:44:40.393Z,92.94
2018-02-16T00:47:08.773Z,93.02
2018-02-16T00:49:37.165Z,93.08
2018-02-16T00:52:05.558Z,93.22
2018-02-16T00:54:33.929Z,93.42
2018-02-16T00:57:02.401Z,93.49
2018-02-16T00:59:30.772Z,93.68
2018-02-16T01:01:59.293Z,93.82
2018-02-16T01:04:28.427Z,93.85
2018-02-16T01:06:56.789Z,93.96
2018-02-16T01:09:25.254Z,93.99
2018-02-16T01:11:54.396Z,94.04
2018-02-16T01:14:22.881Z,94.02
2018-02-16T01:16:51.248Z,94.01
2018-02-16T01:19:19.702Z,94.10
2018-02-16T01:21:48.833Z,94.04
2018-02-16T01:24:17.232Z,93.94
2018-02-16T01:26:45.630Z,93.86
2018-02-16T01:29:14.010Z,93.88
2018-02-16T01:31:43.247Z,93.85
2018-02-16T01:34:11.610Z,93.93
2018-02-16T01:36:40.741Z,94.02
2018-02-16T01:39:09.247Z,94.15
2018-02-16T01:41:37.681Z,94.13
2018-02-16T01:44:06.082Z,94.28
2018-02-16T01:46:34.457Z,94.16
2018-02-16T01:49:02.841Z,94.22
2018-02-16T01:51:31.235Z,94.22
2018-02-16T01:53:59.670Z,94.17
2018-02-16T01:56:28.070Z,94.23
2018-02-16T01:58:56.473Z,94.16
2018-02-16T02:01:24.869Z,94.05
2018-02-16T02:03:53.236Z,93.93
2018-02-16T02:06:21.633Z,93.86
2018-02-16T02:08:50.789Z,93.99
2018-02-16T02:11:19.246Z,94.00
2018-02-16T02:13:47.643Z,94.04
2018-02-16T02:16:16.022Z,94.01
2018-02-16T02:18:44.423Z,93.96
2018-02-16T02:21:12.813Z,93.90
2018-02-16T02:23:41.225Z,93.81
2018-02-16T02:26:10.396Z,93.76
2018-02-16T02:28:38.777Z,93.67
2018-02-16T02:31:07.137Z,93.64
2018-02-16T02:33:35.532Z,93.56
2018-02-16T02:36:04.705Z,93.48
2018-02-16T02:38:33.078Z,93.42
2018-02-16T02:41:01.492Z,93.40
2018-02-16T02:43:30.658Z,93.40
2018-02-16T02:45:59.041Z,93.40
2018-02-16T02:48:27.586Z,93.49
2018-02-16T02:50:55.983Z,93.67
2018-02-16T02:53:24.408Z,93.81
2018-02-16T02:55:52.814Z,93.85
2018-02-16T02:58:21.213Z,93.89
2018-02-16T03:00:49.585Z,94.00
2018-02-16T03:03:18.014Z,94.07
2018-02-16T03:05:46.537Z,94.15
2018-02-16T03:08:14.901Z,94.23
2018-02-16T03:10:43.295Z,94.38
2018-02-16T03:13:11.841Z,94.38
2018-02-16T03:15:40.259Z,94.39
2018-02-16T03:18:08.673Z,94.48
2018-02-16T03:20:37.046Z,94.54
2018-02-16T03:23:05.557Z,94.56
2018-02-16T03:25:34.724Z,94.53
2018-02-16T03:28:03.101Z,94.42
2018-02-16T03:30:31.473Z,94.38
2018-02-16T03:32:59.912Z,94.21
2018-02-16T03:35:29.048Z,94.10
2018-02-16T03:37:57.442Z,93.87
2018-02-16T03:40:25.897Z,93.54
2018-02-16T03:42:54.301Z,93.49
2018-02-16T03:45:22.716Z,93.45
2018-02-16T03:47:51.106Z,93.44
2018-02-16T03:50:19.600Z,93.56
2018-02-16T03:52:48.013Z,93.74
2018-02-16T03:55:16.379Z,93.81
2018-02-16T03:57:44.750Z,93.93
2018-02-16T04:00:13.266Z,93.89
2018-02-16T04:02:43.152Z,93.95
2018-02-16T04:05:11.537Z,93.94
2018-02-16T04:07:39.925Z,94.04
2018-02-16T04:10:08.315Z,94.13
2018-02-16T04:12:36.716Z,94.09
2018-02-16T04:15:05.088Z,94.31
2018-02-16T04:17:33.492Z,94.40
2018-02-16T04:20:01.926Z,94.38
2018-02-16T04:22:30.293Z,94.36
2018-02-16T04:24:58.672Z,94.36
2018-02-16T04:27:27.067Z,94.48
2018-02-16T04:29:55.467Z,94.47
2018-02-16T04:32:24.640Z,94.55
2018-02-16T04:34:53.149Z,94.56
2018-02-16T04:37:22.409Z,94.53
2018-02-16T04:39:50.833Z,94.55
2018-02-16T04:42:19.994Z,94.52
2018-02-16T04:44:48.371Z,94.61
2018-02-16T04:47:16.782Z,94.71
2018-02-16T04:49:45.161Z,94.77
2018-02-16T04:52:14.312Z,94.69
2018-02-16T04:54:42.700Z,94.54
2018-02-16T04:57:11.077Z,94.43
2018-02-16T04:59:39.577Z,94.16
2018-02-16T05:02:08.030Z,94.05
2018-02-16T05:04:36.439Z,93.93
2018-02-16T05:07:04.856Z,93.70
2018-02-16T05:09:33.290Z,93.41
2018-02-16T05:12:01.750Z,92.85
2018-02-16T05:14:30.171Z,92.65
2018-02-16T05:16:58.537Z,92.43
2018-02-16T05:19:26.978Z,92.03
2018-02-16T05:21:55.396Z,91.69
2018-02-16T05:24:23.987Z,91.23
2018-02-16T05:26:53.343Z,90.34
2018-02-16T05:29:21.731Z,90.12
2018-02-16T05:31:50.172Z,90.17
2018-02-16T05:34:18.783Z,89.84
2018-02-16T05:36:47.185Z,89.43
2018-02-16T05:39:15.565Z,88.84
2018-02-16T05:41:43.993Z,88.60
2018-02-16T05:44:12.351Z,88.76
2018-02-16T05:46:40.754Z,88.87
2018-02-16T05:49:09.130Z,87.90
2018-02-16T05:51:37.491Z,87.07
2018-02-16T05:54:06.663Z,85.38
2018-02-16T05:56:35.050Z,83.81
2018-02-16T05:59:03.460Z,83.91
2018-02-16T06:01:31.825Z,84.18
2018-02-16T06:04:00.993Z,84.15
2018-02-16T06:06:29.395Z,84.33
2018-02-16T06:08:57.797Z,84.06
2018-02-16T06:11:26.221Z,83.95
2018-02-16T06:13:54.598Z,83.83
2018-02-16T06:16:23.049Z,83.99
2018-02-16T06:18:51.470Z,83.87
2018-02-16T06:21:19.830Z,83.90
2018-02-16T06:23:48.233Z,83.95
2018-02-16T06:26:16.593Z,84.81
2018-02-16T06:28:45.113Z,82.64
2018-02-16T06:31:13.505Z,82.45
2018-02-16T06:33:41.911Z,81.16
2018-02-16T06:36:10.268Z,80.22
2018-02-16T06:38:38.670Z,80.06
2018-02-16T06:41:07.090Z,80.14
2018-02-16T06:43:36.247Z,80.51
2018-02-16T06:46:04.635Z,81.37
2018-02-16T06:48:33.041Z,81.42
2018-02-16T06:51:01.405Z,82.40
2018-02-16T06:53:29.861Z,82.08
2018-02-16T06:55:58.236Z,82.01
2018-02-16T06:58:26.657Z,81.78
2018-02-16T07:00:55.804Z,81.42
2018-02-16T07:03:24.211Z,81.50
2018-02-16T07:05:52.595Z,81.50
2018-02-16T07:08:20.993Z,81.12
2018-02-16T07:10:50.170Z,81.51
2018-02-16T07:13:18.625Z,81.48
2018-02-16T07:15:47.042Z,81.06
2018-02-16T07:18:15.413Z,80.67
2018-02-16T07:20:43.824Z,80.64
2018-02-16T07:23:12.953Z,80.44
2018-02-16T07:25:41.326Z,80.52
2018-02-16T07:28:09.813Z,80.77
2018-02-16T07:30:38.197Z,80.91
2018-02-16T07:33:06.579Z,81.32
2018-02-16T07:35:34.963Z,81.74
2018-02-16T07:38:03.332Z,82.35
2018-02-16T07:40:31.761Z,82.19
2018-02-16T07:43:00.909Z,82.09
2018-02-16T07:45:29.283Z,82.03
2018-02-16T07:47:57.676Z,81.94
2018-02-16T07:50:26.063Z,82.27
2018-02-16T07:52:54.460Z,81.76
2018-02-16T07:55:22.825Z,81.71
2018-02-16T07:57:51.244Z,81.38
2018-02-16T08:00:20.388Z,81.54
2018-02-16T08:02:48.752Z,81.83
2018-02-16T08:05:17.153Z,81.21
2018-02-16T08:07:45.583Z,80.79
2018-02-16T08:10:13.960Z,80.87
2018-02-16T08:12:42.337Z,80.27
2018-02-16T08:15:10.752Z,79.68
2018-02-16T08:17:39.124Z,79.30
2018-02-16T08:20:07.528Z,79.38
2018-02-16T08:22:35.896Z,79.90
2018-02-16T08:25:04.268Z,78.39
2018-02-16T08:27:32.710Z,77.93
2018-02-16T08:30:01.090Z,77.84
2018-02-16T08:32:29.452Z,77.14
2018-02-16T08:34:58.607Z,76.78
2018-02-16T08:37:27.010Z,76.63
2018-02-16T08:39:55.393Z,77.34
2018-02-16T08:42:23.792Z,75.40
2018-02-16T08:44:52.951Z,74.72
2018-02-16T08:47:21.313Z,74.17
2018-02-16T08:49:49.730Z,75.16
2018-02-16T08:52:18.133Z,73.26
2018-02-16T08:54:46.509Z,72.80
2018-02-16T08:57:14.877Z,71.88
2018-02-16T08:59:44.068Z,71.83
2018-02-16T09:02:13.206Z,71.25
2018-02-16T09:04:41.628Z,70.37
2018-02-16T09:07:10.037Z,69.97
2018-02-16T09:09:38.393Z,69.34
2018-02-16T09:12:07.565Z,69.29
2018-02-16T09:14:36.792Z,68.63
2018-02-16T09:17:05.940Z,68.47
2018-02-16T09:19:34.338Z,68.96
2018-02-16T09:22:02.802Z,68.79
2018-02-16T09:24:31.167Z,67.64
2018-02-16T09:26:59.555Z,59.91
2018-02-16T09:29:27.945Z,51.78
2018-02-16T09:31:56.318Z,49.22
2018-02-16T09:34:24.723Z,46.49
2018-02-16T09:36:54.298Z,47.36
2018-02-16T09:39:27.341Z,46.19
2018-02-16T09:41:56.492Z,44.38
2018-02-16T09:44:24.862Z,47.55
2018-02-16T09:46:53.238Z,49.77
2018-02-16T09:49:21.815Z,46.19
2018-02-16T09:51:50.201Z,47.38
2018-02-16T09:54:18.576Z,48.18
2018-02-16T09:56:46.985Z,51.21
2018-02-16T09:59:15.426Z,57.96
2018-02-16T10:01:43.795Z,59.96
2018-02-16T10:04:12.971Z,62.38
2018-02-16T10:06:42.124Z,63.83
2018-02-16T10:09:10.501Z,65.71
2018-02-16T10:11:39.005Z,66.35
2018-02-16T10:14:07.415Z,67.38
2018-02-16T10:16:35.801Z,68.60
2018-02-16T10:19:04.218Z,69.51
2018-02-16T10:21:32.597Z,70.28
2018-02-16T10:24:00.994Z,70.09
2018-02-16T10:26:30.173Z,70.76
2018-02-16T10:28:58.552Z,70.48
2018-02-16T10:31:26.925Z,71.46
2018-02-16T10:33:55.329Z,72.04
2018-02-16T10:36:23.768Z,72.66
2018-02-16T10:38:52.252Z,72.33
2018-02-16T10:41:20.668Z,72.29
2018-02-16T10:43:49.115Z,71.98
2018-02-16T10:46:17.493Z,72.65
2018-02-16T10:48:45.925Z,72.47
2018-02-16T10:51:15.070Z,72.08
2018-02-16T10:53:43.441Z,72.39
2018-02-16T10:56:11.845Z,72.15
2018-02-16T10:58:40.262Z,72.22
2018-02-16T11:01:14.973Z,72.11
2018-02-16T11:03:43.377Z,72.32
2018-02-16T11:06:13.346Z,71.63
2018-02-16T11:08:47.197Z,71.82
2018-02-16T11:11:16.376Z,71.62
2018-02-16T11:13:44.784Z,72.11
2018-02-16T11:16:13.205Z,71.31
2018-02-16T11:18:42.211Z,71.73
2018-02-16T11:21:10.662Z,71.82
2018-02-16T11:23:39.029Z,71.04
2018-02-16T11:26:07.450Z,70.48
2018-02-16T11:28:35.913Z,71.61
2018-02-16T11:31:04.312Z,71.13
2018-02-16T11:33:32.685Z,70.33
2018-02-16T11:36:01.109Z,70.25
2018-02-16T11:38:29.478Z,70.71
2018-02-16T11:40:58.621Z,69.99
2018-02-16T11:43:27.245Z,70.10
2018-02-16T11:45:56.404Z,69.52
2018-02-16T11:48:24.781Z,69.37
2018-02-16T11:50:53.190Z,69.24
2018-02-16T11:53:21.661Z,68.85
2018-02-16T11:55:50.111Z,67.71
2018-02-16T11:58:19.059Z,67.71
2018-02-16T12:00:47.744Z,67.35
2018-02-16T12:03:16.921Z,68.12
2018-02-16T12:05:45.338Z,66.12
2018-02-16T12:08:13.760Z,64.82
2018-02-16T12:10:42.133Z,65.47
2018-02-16T12:13:10.672Z,64.63
2018-02-16T12:15:39.086Z,66.75
2018-02-16T12:18:07.448Z,67.90
2018-02-16T12:20:36.135Z,68.38
2018-02-16T12:23:04.508Z,68.40
2018-02-16T12:25:32.877Z,68.59
2018-02-16T12:28:01.277Z,68.62
2018-02-16T12:30:29.648Z,68.93
2018-02-16T12:32:58.054Z,69.19
2018-02-16T12:35:26.522Z,69.35
2018-02-16T12:37:54.894Z,67.64
2018-02-16T12:40:23.281Z,66.61
2018-02-16T12:42:51.659Z,65.32
2018-02-16T12:45:20.048Z,64.67
2018-02-16T12:47:48.525Z,63.81
2018-02-16T12:50:16.990Z,63.63
2018-02-16T12:52:45.570Z,63.91
2018-02-16T12:55:14.151Z,63.72
2018-02-16T12:57:42.512Z,63.42
2018-02-16T13:00:10.890Z,63.32
2018-02-16T13:02:39.365Z,63.17
2018-02-16T13:05:07.757Z,63.28
2018-02-16T13:07:36.460Z,63.82
2018-02-16T13:10:04.826Z,63.78
2018-02-16T13:12:33.201Z,63.31
2018-02-16T13:15:01.598Z,64.04
2018-02-16T13:17:29.981Z,65.74
2018-02-16T13:19:58.466Z,65.76
2018-02-16T13:22:26.868Z,64.29
2018-02-16T13:24:55.230Z,63.31
2018-02-16T13:27:23.632Z,64.31
2018-02-16T13:29:52.026Z,64.23
2018-02-16T13:32:21.272Z,63.23
2018-02-16T13:34:49.650Z,63.39
2018-02-16T13:37:18.085Z,62.92
2018-02-16T13:39:47.334Z,62.83
2018-02-16T13:42:15.749Z,61.43
2018-02-16T13:44:44.108Z,61.01
2018-02-16T13:47:12.573Z,60.92
2018-02-16T13:49:41.009Z,60.21
2018-02-16T13:52:09.374Z,59.64
2018-02-16T13:54:38.503Z,59.43
2018-02-16T13:57:06.928Z,59.09
2018-02-16T13:59:35.308Z,59.04
2018-02-16T14:02:03.710Z,59.38
2018-02-16T14:04:32.893Z,59.41
2018-02-16T14:07:02.057Z,59.77
2018-02-16T14:09:30.443Z,59.07
2018-02-16T14:11:58.909Z,59.19
2018-02-16T14:14:27.362Z,60.20
2018-02-16T14:16:56.484Z,60.14
2018-02-16T14:19:24.932Z,60.50
2018-02-16T14:21:53.342Z,60.20
2018-02-16T14:24:21.701Z,61.38
2018-02-16T14:26:50.065Z,62.91
2018-02-16T14:29:18.486Z,61.82
2018-02-16T14:31:46.900Z,65.74
2018-02-16T14:34:16.037Z,63.52
2018-02-16T14:36:44.705Z,63.99
2018-02-16T14:39:13.081Z,64.36
2018-02-16T14:41:42.300Z,63.10
2018-02-16T14:44:10.732Z,62.63
2018-02-16T14:46:39.903Z,63.16
2018-02-16T14:49:08.299Z,62.91
2018-02-16T14:51:36.690Z,63.72
2018-02-16T14:54:05.148Z,63.89
2018-02-16T14:56:33.527Z,62.93
2018-02-16T14:59:01.930Z,62.77
2018-02-16T15:01:31.110Z,63.08
2018-02-16T15:03:59.498Z,63.14
2018-02-16T15:06:27.876Z,63.25
2018-02-16T15:08:57.055Z,63.25
2018-02-16T15:11:25.509Z,63.36
2018-02-16T15:13:53.867Z,64.00
2018-02-16T15:16:22.273Z,63.59
2018-02-16T15:18:50.669Z,63.64
2018-02-16T15:21:19.068Z,63.23
2018-02-16T15:23:48.215Z,67.41
2018-02-16T15:26:16.636Z,62.88
2018-02-16T15:28:45.046Z,62.95
2018-02-16T15:31:26.328Z,62.82
2018-02-16T15:33:54.724Z,63.20
2018-02-16T15:36:23.169Z,62.85
2018-02-16T15:38:52.338Z,63.38
2018-02-16T15:41:20.746Z,63.34
2018-02-16T15:43:49.949Z,63.65
2018-02-16T15:46:19.084Z,64.16
2018-02-16T15:48:47.469Z,64.75
2018-02-16T15:51:15.848Z,64.83
2018-02-16T15:53:44.237Z,65.04
2018-02-16T15:56:12.638Z,65.47
2018-02-16T15:58:41.045Z,65.92
2018-02-16T16:01:10.207Z,66.58
2018-02-16T16:03:39.419Z,66.97
2018-02-16T16:06:07.822Z,67.50
2018-02-16T16:08:36.968Z,68.20
2018-02-16T16:11:05.361Z,68.63
2018-02-16T16:13:33.717Z,69.31
2018-02-16T16:16:02.189Z,70.02
2018-02-16T16:18:30.557Z,70.53
2018-02-16T16:20:58.954Z,70.76
2018-02-16T16:23:27.345Z,71.18
2018-02-16T16:25:55.814Z,71.57
2018-02-16T16:28:24.189Z,72.07
2018-02-16T16:30:52.661Z,72.29
2018-02-16T16:33:21.063Z,72.43
2018-02-16T16:35:49.515Z,72.65
2018-02-16T16:38:17.869Z,72.97
2018-02-16T16:40:47.041Z,73.21
2018-02-16T16:43:15.442Z,73.46
2018-02-16T16:45:44.577Z,73.68
2018-02-16T16:48:12.965Z,73.67
2018-02-16T16:50:41.425Z,73.86
2018-02-16T16:53:09.828Z,73.99
2018-02-16T16:55:38.245Z,73.97
2018-02-16T16:58:06.661Z,74.46
2018-02-16T17:00:35.080Z,74.80
2018-02-16T17:03:03.449Z,75.40
2018-02-16T17:05:31.833Z,75.71
2018-02-16T17:08:00.205Z,75.81
2018-02-16T17:10:28.607Z,83.86
2018-02-16T17:12:57.027Z,76.69
2018-02-16T17:15:25.409Z,76.67
2018-02-16T17:17:54.549Z,76.92
2018-02-16T17:20:22.983Z,77.22
2018-02-16T17:22:51.341Z,77.51
2018-02-16T17:25:20.509Z,77.67
2018-02-16T17:27:48.948Z,77.79
2018-02-16T17:30:17.344Z,77.88
2018-02-16T17:32:45.812Z,78.08
2018-02-16T17:35:14.174Z,78.14
2018-02-16T17:37:42.751Z,78.36
2018-02-16T17:40:11.138Z,78.35
2018-02-16T17:42:39.514Z,78.10
2018-02-16T17:45:07.907Z,77.93
2018-02-16T17:47:36.344Z,77.71
2018-02-16T17:50:05.469Z,77.80
2018-02-16T17:55:31.418Z,78.00
2018-02-16T17:57:59.794Z,78.06
2018-02-16T18:00:28.198Z,78.17
2018-02-16T18:02:56.562Z,78.05
2018-02-16T18:05:24.941Z,78.27
2018-02-16T18:07:53.333Z,78.31
2018-02-16T18:10:21.746Z,78.44
2018-02-16T18:12:50.882Z,78.38
2018-02-16T18:15:19.270Z,78.35
2018-02-16T18:17:47.678Z,78.13
2018-02-16T18:20:16.117Z,77.89
2018-02-16T18:22:44.514Z,77.74
2018-02-16T18:25:12.892Z,77.52
2018-02-16T18:27:41.362Z,77.60
2018-02-16T18:30:09.797Z,77.55
2018-02-16T18:32:38.969Z,77.64
2018-02-16T18:35:07.342Z,77.61
2018-02-16T18:37:35.754Z,78.06
2018-02-16T18:40:04.898Z,78.67
2018-02-16T18:42:33.268Z,78.93
2018-02-16T18:45:01.766Z,79.16
2018-02-16T18:47:30.142Z,79.47
2018-02-16T18:49:58.616Z,79.62
2018-02-16T18:52:27.009Z,80.02
2018-02-16T18:54:55.424Z,80.04
2018-02-16T18:57:24.566Z,80.28
2018-02-16T18:59:52.978Z,80.48
2018-02-16T19:02:21.380Z,80.78
2018-02-16T19:04:50.523Z,80.96
2018-02-16T19:07:18.905Z,80.99
2018-02-16T19:09:47.293Z,81.26
2018-02-16T19:12:15.673Z,81.08
2018-02-16T19:14:44.073Z,81.10
2018-02-16T19:17:12.468Z,81.01
2018-02-16T19:19:41.646Z,80.83
2018-02-16T19:22:10.054Z,80.56
2018-02-16T19:24:39.212Z,80.25
2018-02-16T19:27:07.610Z,80.19
2018-02-16T19:29:36.002Z,80.24
2018-02-16T19:32:05.146Z,79.71
2018-02-16T19:34:33.581Z,79.78
2018-02-16T19:37:01.988Z,80.12
2018-02-16T19:39:30.377Z,80.48
2018-02-16T19:41:58.793Z,80.91
2018-02-16T19:44:27.206Z,80.87
2018-02-16T19:46:56.346Z,81.11
2018-02-16T19:49:24.773Z,81.58
2018-02-16T19:51:55.103Z,82.17
2018-02-16T19:54:24.337Z,82.49
2018-02-16T19:56:52.710Z,82.37
2018-02-16T19:59:21.108Z,82.53
2018-02-16T20:01:49.529Z,82.52
2018-02-16T20:04:18.768Z,82.54
2018-02-16T20:06:47.133Z,82.63
2018-02-16T20:09:15.526Z,82.76
2018-02-16T20:11:43.929Z,82.86
2018-02-16T20:14:12.340Z,82.84
2018-02-16T20:16:41.576Z,83.32
2018-02-16T20:19:09.965Z,82.98
2018-02-16T20:21:38.338Z,82.65
2018-02-16T20:24:06.725Z,82.18
2018-02-16T20:26:35.113Z,81.97
2018-02-16T20:29:03.639Z,81.60
2018-02-16T20:31:32.013Z,81.35
2018-02-16T20:34:01.258Z,81.04
2018-02-16T20:36:29.672Z,80.85
2018-02-16T20:38:58.170Z,81.18
2018-02-16T20:41:27.298Z,81.34
2018-02-16T20:43:55.705Z,81.40
2018-02-16T20:46:24.105Z,81.74
2018-02-16T20:48:52.514Z,81.60
2018-02-16T20:51:21.708Z,81.28
2018-02-16T20:53:50.875Z,81.24
2018-02-16T20:56:19.325Z,81.20
2018-02-16T20:58:47.932Z,81.11
2018-02-16T21:01:16.580Z,81.52
2018-02-16T21:03:45.015Z,82.05
2018-02-16T21:06:13.412Z,82.14
2018-02-16T21:08:41.809Z,82.09
2018-02-16T21:11:10.237Z,81.85
2018-02-16T21:13:38.695Z,81.25
2018-02-16T21:16:07.067Z,81.29
2018-02-16T21:18:35.456Z,81.21
2018-02-16T21:21:03.933Z,81.11
2018-02-16T21:23:32.301Z,81.32
2018-02-16T21:26:00.716Z,81.57
2018-02-16T21:28:29.149Z,82.26
2018-02-16T21:30:57.529Z,82.12
2018-02-16T21:33:25.962Z,82.14
2018-02-16T21:35:54.409Z,82.39
2018-02-16T21:38:22.849Z,82.25
2018-02-16T21:40:51.361Z,82.19
2018-02-16T21:43:19.748Z,82.78
2018-02-16T21:45:48.204Z,83.19
2018-02-16T21:48:16.642Z,83.29
2018-02-16T21:50:45.036Z,83.93
2018-02-16T21:53:14.228Z,84.12
2018-02-16T21:55:43.366Z,84.06
2018-02-16T21:58:11.746Z,84.30
2018-02-16T22:00:40.196Z,84.51
2018-02-16T22:03:09.385Z,84.36
2018-02-16T22:05:38.530Z,84.28
2018-02-16T22:08:07.109Z,84.41
2018-02-16T22:10:35.513Z,84.63
2018-02-16T22:13:03.873Z,84.50
2018-02-16T22:15:32.238Z,84.91
2018-02-16T22:18:00.674Z,84.70
2018-02-16T22:20:29.808Z,84.69
2018-02-16T22:22:58.209Z,84.62
2018-02-16T22:25:26.616Z,84.78
2018-02-16T22:27:55.049Z,84.99
2018-02-16T22:30:23.457Z,85.05
2018-02-16T22:32:51.825Z,84.80
2018-02-16T22:35:20.229Z,84.66
2018-02-16T22:37:48.698Z,84.88
2018-02-16T22:40:17.150Z,84.91
2018-02-16T22:42:45.560Z,85.13
2018-02-16T22:45:13.923Z,85.53
2018-02-16T22:47:42.320Z,85.81
2018-02-16T22:50:10.705Z,86.46
2018-02-16T22:52:39.143Z,86.78
2018-02-16T22:55:07.948Z,86.98
2018-02-16T22:57:36.310Z,86.69
2018-02-16T23:00:04.725Z,86.60
2018-02-16T23:02:33.086Z,86.66
2018-02-16T23:05:01.508Z,86.82
2018-02-16T23:07:30.745Z,86.80
2018-02-16T23:09:59.144Z,86.83
2018-02-16T23:12:27.549Z,86.74
2018-02-16T23:14:55.913Z,86.62
2018-02-16T23:17:24.365Z,86.62
2018-02-16T23:19:52.847Z,86.68
2018-02-16T23:22:21.217Z,86.69
2018-02-16T23:24:49.617Z,86.62
2018-02-16T23:27:18.000Z,86.53
2018-02-16T23:29:46.413Z,86.25
2018-02-16T23:32:15.596Z,86.06
2018-02-16T23:34:43.974Z,86.14
2018-02-16T23:37:12.369Z,86.23
2018-02-16T23:39:40.849Z,86.42
2018-02-16T23:42:10.030Z,86.22
2018-02-16T23:44:38.342Z,86.49
2018-02-16T23:47:06.701Z,87.09
2018-02-16T23:49:35.088Z,87.42
2018-02-16T23:52:03.491Z,87.28
2018-02-16T23:54:31.979Z,87.19
2018-02-16T23:57:00.355Z,86.83
2018-02-16T23:59:28.756Z,86.74
